Terminal Aerodrome Forecast
Issued by NWS

Current Version | Previous Version | Graphics & Text | Print | Product List | Glossary On
Versions: 1 2 3 4 5 6 7 8 9 10 11 12 13 14 15 16 17 18 19 20 21 22 23 24 25 26 27 28 29 30
277
FTUS41 KRNK 210520
TAFLWB
TAF
KLWB 210520Z 2106/2206 00000KT P6SM FEW250
     FM210700 00000KT 5SM BR FEW015
     FM210900 00000KT 4SM BR BKN008
     FM211100 00000KT 1/2SM FG BKN008
     FM211300 00000KT 3SM BR BKN015
     FM211500 VRB03KT P6SM FEW250=

USA.gov is the U.S. government's official web portal to all federal, state and local government web resources and services.